• Join FlightAware (Why Join?)
  • Login
  • US Flag 
04:42AM EST


 

Airport Tracker/Info


-or-


 

Live Flight TrackerFlight Track Log ✈ ASQ4625 ✈ 12-May-2013 ✈ KRSW - KCLE

Flight Track Log - Related Links

Times and Time Zones

All times are in EDT time to prevent confusion due to time zone crossing. See the ASQ4625 flight status page for this flight to view local times or setup timezone preferences in your user account.

Time Position Orientation Groundspeed Altitude Reporting Facility
EDT Latitude Longitude Course Direction KTS MPH feet Rate Location/Type
08:09AM 26.6114 -81.7147 343° North 180 207 3,300  Level Miami Center
08:10AM 26.6822 -81.7200 356° North 210 242 5,500 2,580 Climbing Miami Center
08:11AM 26.7572 -81.7256 356° North 247 284 8,500 2,460 Climbing Miami Center
08:12AM 26.8322 -81.7333 355° North 262 302 10,500 1,620 Climbing Miami Center
08:13AM 26.9236 -81.7417 355° North 298 343 11,800 1,860 Climbing Miami Center
08:14AM 27.1800 -81.7878 343° North  Level FlightAware Approximate
08:14AM 27.0153 -81.7478 357° North 317 365 14,300  Level Miami Center
08:15AM 27.1022 -81.7725 346° North 323 372 16,600 2,100 Climbing Miami Center
08:16AM 27.1847 -81.7972 345° North 316 364 18,600 1,920 Climbing Miami Center
08:17AM 27.2675 -81.8239 344° North 305 351 20,500 1,560 Climbing Miami Center
08:18AM 27.3436 -81.8506 343° North 311 358 21,800 1,200 Climbing Miami Center
08:19AM 27.4344 -81.8825 343° North 324 373 23,000 1,260 Climbing Miami Center
08:20AM 27.5353 -81.9197 342° North 338 389 24,400 1,380 Climbing Miami Center
08:21AM 27.6344 -81.9547 343° North 352 405 25,800 1,620 Climbing Miami Center
08:23AM 27.8172 -82.0103 345° North 363 418 29,200 1,500 Climbing Jacksonville Center
08:24AM 27.9133 -82.0119 359° North 355 409 30,300 1,200 Climbing Jacksonville Center
08:25AM 28.0094 -82.0322 349° North 349 402 31,600 1,260 Climbing Jacksonville Center
08:26AM 28.0953 -82.0714 338° Northwest 337 388 32,900 1,140 Climbing Jacksonville Center
08:27AM 28.1850 -82.1083 340° North 337 388 33,900 540 Climbing Jacksonville Center
08:28AM 28.2814 -82.1453 341° North 345 397 34,000  Climbing Jacksonville Center
08:29AM 28.3839 -82.1872 340° North 368 423 34,000  Level Jacksonville Center
08:30AM 28.4925 -82.2311 340° North 396 456 34,000  Level Jacksonville Center
08:31AM 28.6033 -82.2756 341° North 410 472 34,000  Level Jacksonville Center
08:32AM 28.7164 -82.3197 341° North 420 483 34,000  Level Jacksonville Center
08:33AM 28.8208 -82.3594 342° North 410 472 34,000  Level Jacksonville Center
08:34AM 28.9317 -82.4061 340° North 410 472 34,000  Level Jacksonville Center
08:35AM 29.0403 -82.4508 340° North 410 472 34,000  Level Jacksonville Center
08:36AM 29.1489 -82.4956 340° North 410 472 34,000  Level Jacksonville Center
08:37AM 29.2619 -82.5403 341° North 410 472 34,000  Level Jacksonville Center
08:38AM 29.3706 -82.5828 341° North 410 472 34,000  Level Jacksonville Center
08:39AM 29.4894 -82.6039 351° North 410 472 34,000 360 Level Jacksonville Center
08:40AM 29.6128 -82.5964 North 427 491 34,800 480 Climbing Jacksonville Center
08:41AM 29.7381 -82.5889 North 438 504 35,000 60 Climbing Jacksonville Center
08:42AM 29.8653 -82.5836 North 443 510 35,000  Level Jacksonville Center
08:43AM 29.9883 -82.5761 North 443 510 35,000  Level Jacksonville Center
08:44AM 30.1011 -82.5781 359° North 443 510 35,000  Level Jacksonville Center
08:45AM 30.2244 -82.5706 North 443 510 35,000  Level Jacksonville Center
08:46AM 30.3581 -82.5628 North 438 504 35,000  Level Jacksonville Center
08:47AM 30.4833 -82.5550 North 438 504 35,000  Level Jacksonville Center
08:48AM 30.6086 -82.5522 North 438 504 35,000  Level Jacksonville Center
08:49AM 30.7317 -82.5469 North 438 504 35,000  Level Jacksonville Center
08:50AM 30.8547 -82.5392 North 443 510 35,000  Level Jacksonville Center
08:51AM 30.9800 -82.5339 North 438 504 35,000  Level Jacksonville Center
08:52AM 31.1053 -82.5286 North 438 504 35,000  Level Jacksonville Center
08:53AM 31.2286 -82.5233 North 438 504 35,000  Level Jacksonville Center
08:54AM 31.3497 -82.5228 360° North 438 504 35,000  Level Jacksonville Center
08:55AM 31.4769 -82.5100 North 443 510 35,000  Level Jacksonville Center
08:57AM 31.7283 -82.4811 North 445 512 35,000  Level Atlanta Center
08:58AM 31.8533 -82.4594 North 451 519 35,000  Level Atlanta Center
08:59AM 31.9806 -82.4400 North 451 519 35,000  Level Atlanta Center
09:00AM 32.1053 -82.4206 North 451 519 35,000  Level Atlanta Center
09:01AM 32.2303 -82.4011 North 451 519 35,000  Level Atlanta Center
09:02AM 32.3531 -82.3767 10° North 445 512 35,000  Level Atlanta Center
09:03AM 32.4761 -82.3572 North 445 512 35,000  Level Atlanta Center
09:04AM 32.6031 -82.3375 North 445 512 35,000  Level Atlanta Center
09:05AM 32.7281 -82.3203 North 445 512 35,000  Level Atlanta Center
09:06AM 32.8511 -82.3006 North 445 512 35,000  Level Atlanta Center
09:07AM 32.9717 -82.2808 North 445 512 35,000  Level Atlanta Center
09:08AM 33.1133 -82.2581 North 452 520 35,000  Level Atlanta Center
09:09AM 33.2364 -82.2383 North 447 514 35,000  Level Atlanta Center
09:10AM 33.3611 -82.2183 North 447 514 35,000  Level Atlanta Center
09:11AM 33.4819 -82.1983 North 442 509 35,000  Level Atlanta Center
09:12AM 33.6047 -82.1781 North 447 514 35,000  Level Atlanta Center
09:13AM 33.7317 -82.1556 North 447 514 35,000  Level Atlanta Center
09:14AM 33.8547 -82.1353 North 447 514 35,000  Level Atlanta Center
09:15AM 33.9775 -82.1150 North 442 509 35,000  Level Atlanta Center
09:16AM 34.0900 -82.0972 North 448 516 35,000  Level Atlanta Center
09:17AM 34.2147 -82.0719 10° North 448 516 35,000  Level Atlanta Center
09:18AM 34.3417 -82.0489 North 448 516 35,000  Level Atlanta Center
09:19AM 34.4644 -82.0283 North 443 510 35,000  Level Atlanta Center
09:20AM 34.5894 -82.0075 North 448 516 35,000  Level Atlanta Center
09:21AM 34.7164 -81.9869 North 443 510 35,000  Level Atlanta Center
09:22AM 34.8369 -81.9611 10° North 443 510 35,000  Level Atlanta Center
09:23AM 34.9764 -81.9425 North 448 516 35,000  Level Atlanta Center
09:24AM 35.1014 -81.9292 North 448 516 35,000  Level Atlanta Center
09:25AM 35.2119 -81.9239 North 442 509 35,000  Level Atlanta Center
09:26AM 35.3347 -81.9156 North 442 509 35,000  Level Atlanta Center
09:27AM 35.4578 -81.9097 North 442 509 35,000  Level Atlanta Center
09:28AM 35.5808 -81.9067 North 442 509 35,000  Level Atlanta Center
09:29AM 35.7122 -81.8981 North 432 497 35,000  Level Atlanta Center
09:30AM 35.8289 -81.8925 North 427 491 35,000  Level Atlanta Center
09:31AM 35.9456 -81.8867 North 421 484 35,000  Level Atlanta Center
09:32AM 36.0622 -81.8836 North 421 484 35,000  Level Atlanta Center
09:33AM 36.1811 -81.8778 North 420 483 35,000  Level Atlanta Center
09:34AM 36.3019 -81.8694 North 420 483 35,000  Level Atlanta Center
09:36AM 36.5750 -81.8558 North 438 504 35,000  Level Indianapolis Center
09:37AM 36.6994 -81.8503 North 445 512 35,000  Level Indianapolis Center
09:38AM 36.8458 -81.8428 North 448 516 35,000  Level Indianapolis Center
09:39AM 36.9767 -81.8372 North 461 531 35,000  Level Indianapolis Center
09:40AM 37.1022 -81.8444 357° North 454 522 35,000  Level Indianapolis Center
09:41AM 37.2253 -81.8542 356° North 445 512 35,000  Level Indianapolis Center
09:42AM 37.3483 -81.8647 356° North 443 510 35,000  Level Indianapolis Center
09:43AM 37.4694 -81.8744 356° North 438 504 35,000  Level Indianapolis Center
09:44AM 37.6081 -81.8861 356° North 429 494 35,000  Level Indianapolis Center
09:45AM 37.7267 -81.8967 356° North 426 490 35,000  Level Indianapolis Center
09:46AM 37.8403 -81.9050 357° North 425 489 35,000 -60 Level Indianapolis Center
09:47AM 37.9581 -81.9147 356° North 425 489 34,900 -300 Descending Indianapolis Center
09:48AM 38.0753 -81.9247 356° North 419 482 34,400 -480 Descending Indianapolis Center
09:49AM 38.1900 -81.9336 357° North 414 476 34,000 -240 Descending Indianapolis Center
09:50AM 38.3069 -81.9439 356° North 417 480 34,000  Level Indianapolis Center
09:51AM 38.4267 -81.9531 357° North 424 488 34,000  Level Indianapolis Center
09:53AM 38.5739 -81.9658 356° North 434 499 34,000  Level Indianapolis Center
09:54AM 38.6975 -81.9761 356° North 439 505 34,000  Level Indianapolis Center
09:55AM 38.8222 -81.9856 357° North 442 509 34,000  Level Indianapolis Center
09:56AM 38.9447 -81.9975 356° North 437 503 34,000  Level Indianapolis Center
09:57AM 39.0686 -82.0067 357° North 442 509 34,000  Level Indianapolis Center
09:58AM 39.1911 -82.0169 356° North 439 505 34,000 -300 Level Indianapolis Center
09:59AM 39.3142 -82.0281 356° North 441 507 33,400 -840 Descending Indianapolis Center
10:00AM 39.4358 -82.0383 356° North 437 503 32,400 -1,020 Descending Indianapolis Center
10:01AM 39.5564 -82.0478 357° North 432 497 31,400 -1,080 Descending Indianapolis Center
10:02AM 39.6978 -82.0606 356° North 424 488 30,200 -720 Descending Indianapolis Center
10:03AM 39.8075 -82.0703 356° North 419 482 30,000 -480 Descending Indianapolis Center
10:04AM 39.9239 -82.0800 356° North 419 482 29,300 -840 Descending Indianapolis Center
10:05AM 40.0381 -82.0892 356° North 411 473 28,300 -1,080 Descending Indianapolis Center
10:06AM 40.1503 -82.0994 356° North 402 463 27,100 -1,620 Descending Indianapolis Center
10:07AM 40.2636 -82.1092 356° North 389 448 25,000 -2,160 Descending Indianapolis Center
10:08AM 40.3658 -82.1178 356° North 368 423 22,700 -2,580 Descending Indianapolis Center
10:09AM 40.4486 -82.1192 359° North 361 415 20,600 -2,640 Descending Cleveland Center
10:10AM 40.5392 -82.0447 32° Northeast 366 421 18,200 -2,220 Descending Cleveland Center
10:11AM 40.6281 -81.9564 37° Northeast 390 449 16,200 -1,860 Descending Cleveland Center
10:12AM 40.7039 -81.8814 37° Northeast 390 449 14,500 -1,920 Descending Cleveland Center
10:12AM 40.7567 -81.8303 36° Northeast 370 426 13,200 -2,040 Descending Cleveland Center
10:13AM 40.7861 -81.8008 37° Northeast 378 435 12,500 -1,860 Descending Cleveland Center
10:13AM 40.8114 -81.7792 33° Northeast 348 400 11,900 -1,920 Descending Cleveland Center
10:14AM 40.8619 -81.7253 39° Northeast 353 406 10,600 -1,140 Descending Cleveland Center
10:15AM 40.9433 -81.7047 11° North 279 321 10,000 -300 Descending Cleveland Center
10:16AM 41.0206 -81.6978 North 279 321 10,000 -300 Level Cleveland Center
10:17AM 41.0936 -81.6989 359° North 262 302 9,400 -900 Descending Cleveland Center
10:18AM 41.1706 -81.7031 358° North 262 302 8,200 -1,500 Descending Cleveland Center
10:19AM 41.2539 -81.7128 355° North 250 288 6,200 -1,440 Descending Cleveland Center
10:20AM 41.3331 -81.7253 353° North 250 288 5,000 -780 Descending Cleveland Center
10:21AM 41.3667 -81.7008 29° Northeast 230 265 4,800 -600 Descending Cleveland Center
10:21AM 41.3897 -81.6847 28° Northeast 214 246 4,400 -720 Descending Cleveland Center
10:22AM 41.4172 -81.6575 37° Northeast 212 244 4,100 -240 Descending Cleveland Center
10:23AM 41.4753 -81.6667 353° North 182 209 4,000 -480 Descending Cleveland Center
10:24AM 41.5042 -81.7117 311° West 174 200 3,200 -720 Descending Cleveland Center
10:25AM 41.4703 -81.7636 229° Southwest 172 198 2,500 -720 Descending Cleveland Center
10:26AM 41.4428 -81.8019 226° Southwest 116 133 1,700 -720 Descending Cleveland Center
10:27AM 41.4214 -81.8375 231° Southwest 120 138 1,100 -600 Descending Cleveland Center